sensor_id;sensor_type;location;lat;lon;timestamp;temperature;humidity
3818;DHT22;1924;48.078;11.516;2022-07-06T00:01:45;18.50;96.60
3818;DHT22;1924;48.078;11.516;2022-07-06T00:04:13;18.50;96.10
3818;DHT22;1924;48.078;11.516;2022-07-06T00:06:40;18.40;96.90
3818;DHT22;1924;48.078;11.516;2022-07-06T00:09:07;18.40;97.40
3818;DHT22;1924;48.078;11.516;2022-07-06T00:11:33;18.40;98.00
3818;DHT22;1924;48.078;11.516;2022-07-06T00:14:00;18.40;97.20
3818;DHT22;1924;48.078;11.516;2022-07-06T00:16:27;18.40;96.80
3818;DHT22;1924;48.078;11.516;2022-07-06T00:18:54;18.40;96.10
3818;DHT22;1924;48.078;11.516;2022-07-06T00:21:22;18.30;95.50
3818;DHT22;1924;48.078;11.516;2022-07-06T00:23:49;18.40;96.20
3818;DHT22;1924;48.078;11.516;2022-07-06T00:26:17;18.50;96.40
3818;DHT22;1924;48.078;11.516;2022-07-06T00:28:44;18.40;96.40
3818;DHT22;1924;48.078;11.516;2022-07-06T00:31:11;18.40;96.30
3818;DHT22;1924;48.078;11.516;2022-07-06T00:33:37;18.30;96.30
3818;DHT22;1924;48.078;11.516;2022-07-06T00:36:04;18.30;96.40
3818;DHT22;1924;48.078;11.516;2022-07-06T00:38:32;18.30;96.80
3818;DHT22;1924;48.078;11.516;2022-07-06T00:40:59;18.30;97.10
3818;DHT22;1924;48.078;11.516;2022-07-06T00:43:26;18.20;97.60
3818;DHT22;1924;48.078;11.516;2022-07-06T00:45:53;18.20;97.30
3818;DHT22;1924;48.078;11.516;2022-07-06T00:48:20;18.10;97.80
3818;DHT22;1924;48.078;11.516;2022-07-06T00:50:47;18.10;97.80
3818;DHT22;1924;48.078;11.516;2022-07-06T00:53:14;18.20;98.30
3818;DHT22;1924;48.078;11.516;2022-07-06T00:55:42;18.10;98.20
3818;DHT22;1924;48.078;11.516;2022-07-06T00:58:09;18.10;97.80
3818;DHT22;1924;48.078;11.516;2022-07-06T01:00:36;18.10;98.20
3818;DHT22;1924;48.078;11.516;2022-07-06T01:03:04;18.10;98.30
3818;DHT22;1924;48.078;11.516;2022-07-06T01:05:30;18.20;97.90
3818;DHT22;1924;48.078;11.516;2022-07-06T01:07:57;18.20;97.80
3818;DHT22;1924;48.078;11.516;2022-07-06T01:10:26;18.10;98.50
3818;DHT22;1924;48.078;11.516;2022-07-06T01:12:58;18.20;98.60
3818;DHT22;1924;48.078;11.516;2022-07-06T01:15:25;18.20;97.60
3818;DHT22;1924;48.078;11.516;2022-07-06T01:17:52;18.10;97.90
3818;DHT22;1924;48.078;11.516;2022-07-06T01:20:22;18.00;98.00
3818;DHT22;1924;48.078;11.516;2022-07-06T01:22:51;18.00;99.10
3818;DHT22;1924;48.078;11.516;2022-07-06T01:25:18;18.00;98.40
3818;DHT22;1924;48.078;11.516;2022-07-06T01:27:47;18.00;98.40
3818;DHT22;1924;48.078;11.516;2022-07-06T01:30:15;18.00;98.20
3818;DHT22;1924;48.078;11.516;2022-07-06T01:32:42;18.00;97.90
3818;DHT22;1924;48.078;11.516;2022-07-06T01:35:11;17.90;98.00
3818;DHT22;1924;48.078;11.516;2022-07-06T01:37:41;17.90;98.10
3818;DHT22;1924;48.078;11.516;2022-07-06T01:40:10;17.90;98.40
3818;DHT22;1924;48.078;11.516;2022-07-06T01:42:37;17.70;98.20
3818;DHT22;1924;48.078;11.516;2022-07-06T01:45:05;17.70;98.20
3818;DHT22;1924;48.078;11.516;2022-07-06T01:47:32;17.80;98.70
3818;DHT22;1924;48.078;11.516;2022-07-06T01:50:00;17.90;98.70
3818;DHT22;1924;48.078;11.516;2022-07-06T01:52:26;17.80;98.40
3818;DHT22;1924;48.078;11.516;2022-07-06T01:54:55;17.80;98.60
3818;DHT22;1924;48.078;11.516;2022-07-06T01:57:22;17.70;98.50
3818;DHT22;1924;48.078;11.516;2022-07-06T01:59:48;17.60;98.70
3818;DHT22;1924;48.078;11.516;2022-07-06T02:02:15;17.50;98.70
3818;DHT22;1924;48.078;11.516;2022-07-06T02:04:43;17.50;98.90
3818;DHT22;1924;48.078;11.516;2022-07-06T02:07:09;17.50;99.20
3818;DHT22;1924;48.078;11.516;2022-07-06T02:09:36;17.40;99.20
3818;DHT22;1924;48.078;11.516;2022-07-06T02:12:05;17.50;99.30
3818;DHT22;1924;48.078;11.516;2022-07-06T02:14:32;17.40;99.30
3818;DHT22;1924;48.078;11.516;2022-07-06T02:16:58;17.50;99.10
3818;DHT22;1924;48.078;11.516;2022-07-06T02:19:25;17.40;99.40
3818;DHT22;1924;48.078;11.516;2022-07-06T02:21:52;17.50;99.00
3818;DHT22;1924;48.078;11.516;2022-07-06T02:24:19;17.40;99.30
3818;DHT22;1924;48.078;11.516;2022-07-06T02:26:45;17.40;99.40
3818;DHT22;1924;48.078;11.516;2022-07-06T02:29:13;17.30;99.10
3818;DHT22;1924;48.078;11.516;2022-07-06T02:31:40;17.40;99.20
3818;DHT22;1924;48.078;11.516;2022-07-06T02:34:07;17.30;99.10
3818;DHT22;1924;48.078;11.516;2022-07-06T02:36:34;17.30;99.30
3818;DHT22;1924;48.078;11.516;2022-07-06T02:39:00;17.20;99.30
3818;DHT22;1924;48.078;11.516;2022-07-06T02:41:27;17.20;99.00
3818;DHT22;1924;48.078;11.516;2022-07-06T02:43:54;17.30;99.30
3818;DHT22;1924;48.078;11.516;2022-07-06T02:46:22;17.30;99.40
3818;DHT22;1924;48.078;11.516;2022-07-06T02:48:48;17.20;99.30
3818;DHT22;1924;48.078;11.516;2022-07-06T02:51:15;17.10;99.30
3818;DHT22;1924;48.078;11.516;2022-07-06T02:53:42;17.00;99.90
3818;DHT22;1924;48.078;11.516;2022-07-06T02:56:09;16.90;99.70
3818;DHT22;1924;48.078;11.516;2022-07-06T02:58:35;16.90;99.70
3818;DHT22;1924;48.078;11.516;2022-07-06T03:01:02;16.90;99.80
3818;DHT22;1924;48.078;11.516;2022-07-06T03:03:30;17.00;99.80
3818;DHT22;1924;48.078;11.516;2022-07-06T03:05:57;17.00;99.90
3818;DHT22;1924;48.078;11.516;2022-07-06T03:08:24;16.80;99.90
3818;DHT22;1924;48.078;11.516;2022-07-06T03:10:50;16.80;99.90
3818;DHT22;1924;48.078;11.516;2022-07-06T03:13:17;16.70;99.90
3818;DHT22;1924;48.078;11.516;2022-07-06T03:15:44;16.70;99.90
3818;DHT22;1924;48.078;11.516;2022-07-06T03:18:11;16.70;99.90
3818;DHT22;1924;48.078;11.516;2022-07-06T03:20:39;16.70;99.90
3818;DHT22;1924;48.078;11.516;2022-07-06T03:23:06;16.60;99.90
3818;DHT22;1924;48.078;11.516;2022-07-06T03:25:32;16.60;99.90
3818;DHT22;1924;48.078;11.516;2022-07-06T03:27:59;16.70;99.90
3818;DHT22;1924;48.078;11.516;2022-07-06T03:30:26;16.80;99.90
3818;DHT22;1924;48.078;11.516;2022-07-06T03:32:53;16.70;99.90
3818;DHT22;1924;48.078;11.516;2022-07-06T03:35:20;16.80;99.90
3818;DHT22;1924;48.078;11.516;2022-07-06T03:37:48;16.60;99.90
3818;DHT22;1924;48.078;11.516;2022-07-06T03:40:14;16.60;99.90
3818;DHT22;1924;48.078;11.516;2022-07-06T03:42:41;16.50;99.90
3818;DHT22;1924;48.078;11.516;2022-07-06T03:45:09;16.50;99.90
3818;DHT22;1924;48.078;11.516;2022-07-06T03:47:36;16.50;99.90
3818;DHT22;1924;48.078;11.516;2022-07-06T03:50:03;16.50;99.90
3818;DHT22;1924;48.078;11.516;2022-07-06T03:52:30;16.60;99.90
3818;DHT22;1924;48.078;11.516;2022-07-06T03:54:58;16.60;99.90
3818;DHT22;1924;48.078;11.516;2022-07-06T03:57:24;16.50;99.90
3818;DHT22;1924;48.078;11.516;2022-07-06T03:59:52;16.60;99.90
3818;DHT22;1924;48.078;11.516;2022-07-06T04:02:18;16.50;99.90
3818;DHT22;1924;48.078;11.516;2022-07-06T04:04:45;16.50;99.90
3818;DHT22;1924;48.078;11.516;2022-07-06T04:07:12;16.50;99.90
3818;DHT22;1924;48.078;11.516;2022-07-06T04:09:39;16.50;99.90
3818;DHT22;1924;48.078;11.516;2022-07-06T04:12:07;16.40;99.90
3818;DHT22;1924;48.078;11.516;2022-07-06T04:14:34;16.50;99.90
3818;DHT22;1924;48.078;11.516;2022-07-06T04:17:01;16.50;99.90
3818;DHT22;1924;48.078;11.516;2022-07-06T04:19:49;16.60;99.90
3818;DHT22;1924;48.078;11.516;2022-07-06T04:22:15;16.50;99.90
3818;DHT22;1924;48.078;11.516;2022-07-06T04:24:42;16.60;99.90
3818;DHT22;1924;48.078;11.516;2022-07-06T04:27:10;16.60;99.90
3818;DHT22;1924;48.078;11.516;2022-07-06T04:29:37;16.70;99.90
3818;DHT22;1924;48.078;11.516;2022-07-06T04:32:04;16.80;99.90
3818;DHT22;1924;48.078;11.516;2022-07-06T04:34:31;16.90;99.90
3818;DHT22;1924;48.078;11.516;2022-07-06T04:36:58;16.90;99.90
3818;DHT22;1924;48.078;11.516;2022-07-06T04:39:24;16.90;99.90
3818;DHT22;1924;48.078;11.516;2022-07-06T04:41:51;16.90;99.90
3818;DHT22;1924;48.078;11.516;2022-07-06T04:44:19;16.80;99.90
3818;DHT22;1924;48.078;11.516;2022-07-06T04:46:46;16.90;99.90
3818;DHT22;1924;48.078;11.516;2022-07-06T04:49:13;17.00;99.90
3818;DHT22;1924;48.078;11.516;2022-07-06T04:51:39;17.00;99.90
3818;DHT22;1924;48.078;11.516;2022-07-06T04:54:06;17.00;99.90
3818;DHT22;1924;48.078;11.516;2022-07-06T04:56:33;17.10;99.90
3818;DHT22;1924;48.078;11.516;2022-07-06T04:58:59;17.10;99.90
3818;DHT22;1924;48.078;11.516;2022-07-06T05:01:27;17.20;99.90
3818;DHT22;1924;48.078;11.516;2022-07-06T05:03:54;17.20;99.90
3818;DHT22;1924;48.078;11.516;2022-07-06T05:06:21;17.20;99.90
3818;DHT22;1924;48.078;11.516;2022-07-06T05:08:47;17.30;99.90
3818;DHT22;1924;48.078;11.516;2022-07-06T05:11:14;17.40;99.90
3818;DHT22;1924;48.078;11.516;2022-07-06T05:13:41;17.50;99.90
3818;DHT22;1924;48.078;11.516;2022-07-06T05:16:09;17.50;99.90
3818;DHT22;1924;48.078;11.516;2022-07-06T05:18:37;17.60;99.90
3818;DHT22;1924;48.078;11.516;2022-07-06T05:21:03;17.70;99.90
3818;DHT22;1924;48.078;11.516;2022-07-06T05:23:30;17.80;99.90
3818;DHT22;1924;48.078;11.516;2022-07-06T05:25:57;17.80;99.90
3818;DHT22;1924;48.078;11.516;2022-07-06T05:28:24;17.80;99.90
3818;DHT22;1924;48.078;11.516;2022-07-06T05:30:51;17.90;99.90
3818;DHT22;1924;48.078;11.516;2022-07-06T05:33:18;18.00;99.90
3818;DHT22;1924;48.078;11.516;2022-07-06T05:35:46;18.10;99.90
3818;DHT22;1924;48.078;11.516;2022-07-06T05:38:13;18.10;99.90
3818;DHT22;1924;48.078;11.516;2022-07-06T05:40:39;18.10;99.90
3818;DHT22;1924;48.078;11.516;2022-07-06T05:43:06;18.10;99.90
3818;DHT22;1924;48.078;11.516;2022-07-06T05:45:33;18.10;99.90
3818;DHT22;1924;48.078;11.516;2022-07-06T05:48:00;18.20;99.90
3818;DHT22;1924;48.078;11.516;2022-07-06T05:50:46;18.20;99.90
3818;DHT22;1924;48.078;11.516;2022-07-06T05:53:12;18.30;99.90
3818;DHT22;1924;48.078;11.516;2022-07-06T05:55:42;18.40;99.90
3818;DHT22;1924;48.078;11.516;2022-07-06T05:58:09;18.40;99.90
3818;DHT22;1924;48.078;11.516;2022-07-06T06:00:36;18.50;99.90
3818;DHT22;1924;48.078;11.516;2022-07-06T06:03:02;18.50;99.90
3818;DHT22;1924;48.078;11.516;2022-07-06T06:05:29;18.60;99.90
3818;DHT22;1924;48.078;11.516;2022-07-06T06:07:57;18.60;99.90
3818;DHT22;1924;48.078;11.516;2022-07-06T06:10:24;18.60;99.90
3818;DHT22;1924;48.078;11.516;2022-07-06T06:12:51;18.60;99.90
3818;DHT22;1924;48.078;11.516;2022-07-06T06:15:18;18.60;99.90
3818;DHT22;1924;48.078;11.516;2022-07-06T06:17:46;18.50;99.90
3818;DHT22;1924;48.078;11.516;2022-07-06T06:20:13;18.60;99.90
3818;DHT22;1924;48.078;11.516;2022-07-06T06:22:47;18.60;99.90
3818;DHT22;1924;48.078;11.516;2022-07-06T06:25:17;18.70;99.90
3818;DHT22;1924;48.078;11.516;2022-07-06T06:27:44;18.60;99.90
3818;DHT22;1924;48.078;11.516;2022-07-06T06:30:12;18.60;99.90
3818;DHT22;1924;48.078;11.516;2022-07-06T06:32:39;18.70;99.90
3818;DHT22;1924;48.078;11.516;2022-07-06T06:35:07;18.70;99.90
3818;DHT22;1924;48.078;11.516;2022-07-06T06:37:35;18.60;99.90
3818;DHT22;1924;48.078;11.516;2022-07-06T06:40:02;18.70;99.90
3818;DHT22;1924;48.078;11.516;2022-07-06T06:42:30;18.80;99.90
3818;DHT22;1924;48.078;11.516;2022-07-06T06:44:57;18.80;99.90
3818;DHT22;1924;48.078;11.516;2022-07-06T06:47:24;18.80;99.90
3818;DHT22;1924;48.078;11.516;2022-07-06T06:49:51;18.80;98.80
3818;DHT22;1924;48.078;11.516;2022-07-06T06:52:18;18.70;97.80
3818;DHT22;1924;48.078;11.516;2022-07-06T06:54:44;18.80;98.50
3818;DHT22;1924;48.078;11.516;2022-07-06T06:57:11;18.90;98.50
3818;DHT22;1924;48.078;11.516;2022-07-06T06:59:39;19.00;98.20
3818;DHT22;1924;48.078;11.516;2022-07-06T07:02:06;19.00;97.60
3818;DHT22;1924;48.078;11.516;2022-07-06T07:04:33;19.00;98.40
3818;DHT22;1924;48.078;11.516;2022-07-06T07:06:59;19.00;98.10
3818;DHT22;1924;48.078;11.516;2022-07-06T07:09:26;19.20;98.30
3818;DHT22;1924;48.078;11.516;2022-07-06T07:11:53;19.20;97.40
3818;DHT22;1924;48.078;11.516;2022-07-06T07:14:20;19.10;97.00
3818;DHT22;1924;48.078;11.516;2022-07-06T07:16:48;19.20;97.30
3818;DHT22;1924;48.078;11.516;2022-07-06T07:19:15;19.20;97.90
3818;DHT22;1924;48.078;11.516;2022-07-06T07:21:42;19.20;95.60
3818;DHT22;1924;48.078;11.516;2022-07-06T07:24:09;19.30;95.60
3818;DHT22;1924;48.078;11.516;2022-07-06T07:26:36;19.20;95.30
3818;DHT22;1924;48.078;11.516;2022-07-06T07:29:03;19.30;95.40
3818;DHT22;1924;48.078;11.516;2022-07-06T07:31:30;19.50;96.20
3818;DHT22;1924;48.078;11.516;2022-07-06T07:33:58;19.60;96.30
3818;DHT22;1924;48.078;11.516;2022-07-06T07:36:25;19.70;95.50
3818;DHT22;1924;48.078;11.516;2022-07-06T07:38:52;19.80;95.40
3818;DHT22;1924;48.078;11.516;2022-07-06T07:41:19;19.90;96.00
3818;DHT22;1924;48.078;11.516;2022-07-06T07:43:46;20.00;95.40
3818;DHT22;1924;48.078;11.516;2022-07-06T07:46:13;19.90;94.20
3818;DHT22;1924;48.078;11.516;2022-07-06T07:48:42;20.10;95.70
3818;DHT22;1924;48.078;11.516;2022-07-06T07:51:10;20.00;92.80
3818;DHT22;1924;48.078;11.516;2022-07-06T07:53:37;20.20;93.70
3818;DHT22;1924;48.078;11.516;2022-07-06T07:56:04;20.40;94.40
3818;DHT22;1924;48.078;11.516;2022-07-06T07:58:31;20.50;94.40
3818;DHT22;1924;48.078;11.516;2022-07-06T08:00:58;20.50;93.80
3818;DHT22;1924;48.078;11.516;2022-07-06T08:03:25;20.50;93.00
3818;DHT22;1924;48.078;11.516;2022-07-06T08:05:51;20.50;93.40
3818;DHT22;1924;48.078;11.516;2022-07-06T08:08:19;20.50;93.00
3818;DHT22;1924;48.078;11.516;2022-07-06T08:10:46;20.60;93.10
3818;DHT22;1924;48.078;11.516;2022-07-06T08:13:13;20.70;93.30
3818;DHT22;1924;48.078;11.516;2022-07-06T08:15:41;20.80;93.40
3818;DHT22;1924;48.078;11.516;2022-07-06T08:18:08;20.80;91.80
3818;DHT22;1924;48.078;11.516;2022-07-06T08:20:36;20.90;91.60
3818;DHT22;1924;48.078;11.516;2022-07-06T08:23:02;21.00;91.70
3818;DHT22;1924;48.078;11.516;2022-07-06T08:25:31;21.10;90.80
3818;DHT22;1924;48.078;11.516;2022-07-06T08:27:58;21.10;90.50
3818;DHT22;1924;48.078;11.516;2022-07-06T08:30:25;21.10;90.40
3818;DHT22;1924;48.078;11.516;2022-07-06T08:32:51;21.10;91.20
3818;DHT22;1924;48.078;11.516;2022-07-06T08:35:18;21.10;90.40
3818;DHT22;1924;48.078;11.516;2022-07-06T08:37:45;21.10;88.50
3818;DHT22;1924;48.078;11.516;2022-07-06T08:40:12;21.20;91.40
3818;DHT22;1924;48.078;11.516;2022-07-06T08:42:44;21.30;91.40
3818;DHT22;1924;48.078;11.516;2022-07-06T08:45:12;21.20;89.30
3818;DHT22;1924;48.078;11.516;2022-07-06T08:47:41;21.10;90.90
3818;DHT22;1924;48.078;11.516;2022-07-06T08:50:10;21.10;90.10
3818;DHT22;1924;48.078;11.516;2022-07-06T08:52:37;21.20;91.10
3818;DHT22;1924;48.078;11.516;2022-07-06T08:55:05;21.40;91.70
3818;DHT22;1924;48.078;11.516;2022-07-06T08:57:32;21.40;91.70
3818;DHT22;1924;48.078;11.516;2022-07-06T09:00:01;21.70;92.20
3818;DHT22;1924;48.078;11.516;2022-07-06T09:02:28;21.70;87.50
3818;DHT22;1924;48.078;11.516;2022-07-06T09:04:56;21.50;87.40
3818;DHT22;1924;48.078;11.516;2022-07-06T09:07:25;21.50;87.40
3818;DHT22;1924;48.078;11.516;2022-07-06T09:09:54;21.40;88.80
3818;DHT22;1924;48.078;11.516;2022-07-06T09:12:21;21.50;91.60
3818;DHT22;1924;48.078;11.516;2022-07-06T09:14:48;21.60;89.30
3818;DHT22;1924;48.078;11.516;2022-07-06T09:17:16;21.80;91.20
3818;DHT22;1924;48.078;11.516;2022-07-06T09:19:45;21.90;90.70
3818;DHT22;1924;48.078;11.516;2022-07-06T09:22:25;22.00;91.60
3818;DHT22;1924;48.078;11.516;2022-07-06T09:24:52;22.00;90.70
3818;DHT22;1924;48.078;11.516;2022-07-06T09:27:19;21.90;89.40
3818;DHT22;1924;48.078;11.516;2022-07-06T09:29:48;22.00;90.30
3818;DHT22;1924;48.078;11.516;2022-07-06T09:32:20;22.10;91.30
3818;DHT22;1924;48.078;11.516;2022-07-06T09:34:47;22.20;90.10
3818;DHT22;1924;48.078;11.516;2022-07-06T09:37:14;22.40;88.90
3818;DHT22;1924;48.078;11.516;2022-07-06T09:39:43;22.30;86.90
3818;DHT22;1924;48.078;11.516;2022-07-06T09:42:10;22.30;85.70
3818;DHT22;1924;48.078;11.516;2022-07-06T09:44:39;22.20;85.80
3818;DHT22;1924;48.078;11.516;2022-07-06T09:47:07;22.20;86.30
3818;DHT22;1924;48.078;11.516;2022-07-06T09:49:35;22.40;89.40
3818;DHT22;1924;48.078;11.516;2022-07-06T09:52:04;22.60;89.10
3818;DHT22;1924;48.078;11.516;2022-07-06T09:54:32;22.70;87.80
3818;DHT22;1924;48.078;11.516;2022-07-06T09:56:59;22.70;87.80
3818;DHT22;1924;48.078;11.516;2022-07-06T09:59:28;22.60;84.70
3818;DHT22;1924;48.078;11.516;2022-07-06T10:01:55;22.50;83.40
3818;DHT22;1924;48.078;11.516;2022-07-06T10:04:23;22.30;85.60
3818;DHT22;1924;48.078;11.516;2022-07-06T10:06:52;22.30;85.60
3818;DHT22;1924;48.078;11.516;2022-07-06T10:09:22;22.50;85.20
3818;DHT22;1924;48.078;11.516;2022-07-06T10:11:50;22.60;83.60
3818;DHT22;1924;48.078;11.516;2022-07-06T10:14:19;22.60;83.90
3818;DHT22;1924;48.078;11.516;2022-07-06T10:16:47;22.80;84.30
3818;DHT22;1924;48.078;11.516;2022-07-06T10:19:16;23.00;86.50
3818;DHT22;1924;48.078;11.516;2022-07-06T10:21:44;23.10;83.30
3818;DHT22;1924;48.078;11.516;2022-07-06T10:24:12;23.30;86.50
3818;DHT22;1924;48.078;11.516;2022-07-06T10:26:40;23.50;82.50
3818;DHT22;1924;48.078;11.516;2022-07-06T10:29:08;23.60;81.80
3818;DHT22;1924;48.078;11.516;2022-07-06T10:31:38;23.50;79.10
3818;DHT22;1924;48.078;11.516;2022-07-06T10:34:07;23.60;82.90
3818;DHT22;1924;48.078;11.516;2022-07-06T10:36:37;23.70;81.00
3818;DHT22;1924;48.078;11.516;2022-07-06T10:39:04;24.00;86.50
3818;DHT22;1924;48.078;11.516;2022-07-06T10:41:52;24.10;84.20
3818;DHT22;1924;48.078;11.516;2022-07-06T10:44:20;24.10;79.20
3818;DHT22;1924;48.078;11.516;2022-07-06T10:46:52;23.70;76.90
3818;DHT22;1924;48.078;11.516;2022-07-06T10:49:20;23.60;80.00
3818;DHT22;1924;48.078;11.516;2022-07-06T10:51:47;23.60;81.20
3818;DHT22;1924;48.078;11.516;2022-07-06T10:54:16;23.90;82.50
3818;DHT22;1924;48.078;11.516;2022-07-06T10:56:45;24.30;80.40
3818;DHT22;1924;48.078;11.516;2022-07-06T10:59:14;24.40;78.80
3818;DHT22;1924;48.078;11.516;2022-07-06T11:02:11;24.00;77.50
3818;DHT22;1924;48.078;11.516;2022-07-06T11:04:39;24.10;83.70
3818;DHT22;1924;48.078;11.516;2022-07-06T11:07:09;24.00;85.80
3818;DHT22;1924;48.078;11.516;2022-07-06T11:09:36;23.70;76.70
3818;DHT22;1924;48.078;11.516;2022-07-06T11:12:13;23.40;79.30
3818;DHT22;1924;48.078;11.516;2022-07-06T11:14:42;23.50;74.70
3818;DHT22;1924;48.078;11.516;2022-07-06T11:17:10;23.20;78.70
3818;DHT22;1924;48.078;11.516;2022-07-06T11:19:38;23.10;75.30
3818;DHT22;1924;48.078;11.516;2022-07-06T11:22:15;23.40;75.30
3818;DHT22;1924;48.078;11.516;2022-07-06T11:24:43;23.70;74.60
3818;DHT22;1924;48.078;11.516;2022-07-06T11:27:10;24.00;72.60
3818;DHT22;1924;48.078;11.516;2022-07-06T11:29:37;24.30;73.10
3818;DHT22;1924;48.078;11.516;2022-07-06T11:32:07;24.20;75.90
3818;DHT22;1924;48.078;11.516;2022-07-06T11:34:37;24.30;76.40
3818;DHT22;1924;48.078;11.516;2022-07-06T11:37:05;24.30;73.30
3818;DHT22;1924;48.078;11.516;2022-07-06T11:39:34;24.70;76.70
3818;DHT22;1924;48.078;11.516;2022-07-06T11:42:03;25.10;79.80
3818;DHT22;1924;48.078;11.516;2022-07-06T11:44:31;25.10;70.80
3818;DHT22;1924;48.078;11.516;2022-07-06T11:46:57;25.40;80.40
3818;DHT22;1924;48.078;11.516;2022-07-06T11:49:28;25.70;76.30
3818;DHT22;1924;48.078;11.516;2022-07-06T11:51:55;25.60;71.50
3818;DHT22;1924;48.078;11.516;2022-07-06T11:54:23;25.00;70.60
3818;DHT22;1924;48.078;11.516;2022-07-06T11:56:52;25.00;80.00
3818;DHT22;1924;48.078;11.516;2022-07-06T11:59:23;25.30;76.00
3818;DHT22;1924;48.078;11.516;2022-07-06T12:01:59;25.30;71.40
3818;DHT22;1924;48.078;11.516;2022-07-06T12:04:27;25.10;72.30
3818;DHT22;1924;48.078;11.516;2022-07-06T12:06:55;25.10;76.10
3818;DHT22;1924;48.078;11.516;2022-07-06T12:09:22;25.40;76.30
3818;DHT22;1924;48.078;11.516;2022-07-06T12:11:49;25.10;67.20
3818;DHT22;1924;48.078;11.516;2022-07-06T12:14:20;24.80;69.00
3818;DHT22;1924;48.078;11.516;2022-07-06T12:16:49;24.40;68.70
3818;DHT22;1924;48.078;11.516;2022-07-06T12:19:16;24.70;76.60
3818;DHT22;1924;48.078;11.516;2022-07-06T12:21:47;25.00;69.20
3818;DHT22;1924;48.078;11.516;2022-07-06T12:24:18;24.70;69.90
3818;DHT22;1924;48.078;11.516;2022-07-06T12:26:46;24.60;70.00
3818;DHT22;1924;48.078;11.516;2022-07-06T12:29:14;24.60;68.20
3818;DHT22;1924;48.078;11.516;2022-07-06T12:31:43;24.60;67.90
3818;DHT22;1924;48.078;11.516;2022-07-06T12:34:16;24.40;70.60
3818;DHT22;1924;48.078;11.516;2022-07-06T12:36:48;24.70;68.80
3818;DHT22;1924;48.078;11.516;2022-07-06T12:39:17;24.80;67.30
3818;DHT22;1924;48.078;11.516;2022-07-06T12:41:45;24.90;63.70
3818;DHT22;1924;48.078;11.516;2022-07-06T12:44:12;25.10;69.00
3818;DHT22;1924;48.078;11.516;2022-07-06T12:46:40;25.40;65.60
3818;DHT22;1924;48.078;11.516;2022-07-06T12:49:15;25.60;66.10
3818;DHT22;1924;48.078;11.516;2022-07-06T12:51:51;25.80;66.50
3818;DHT22;1924;48.078;11.516;2022-07-06T12:54:18;26.00;67.70
3818;DHT22;1924;48.078;11.516;2022-07-06T12:57:05;26.20;67.80
3818;DHT22;1924;48.078;11.516;2022-07-06T12:59:35;25.70;64.00
3818;DHT22;1924;48.078;11.516;2022-07-06T13:02:02;25.30;64.50
3818;DHT22;1924;48.078;11.516;2022-07-06T13:04:33;24.80;72.00
3818;DHT22;1924;48.078;11.516;2022-07-06T13:07:02;24.50;66.20
3818;DHT22;1924;48.078;11.516;2022-07-06T13:09:30;24.40;65.90
3818;DHT22;1924;48.078;11.516;2022-07-06T13:11:57;24.40;63.00
3818;DHT22;1924;48.078;11.516;2022-07-06T13:14:24;24.50;64.70
3818;DHT22;1924;48.078;11.516;2022-07-06T13:16:50;24.40;63.80
3818;DHT22;1924;48.078;11.516;2022-07-06T13:19:19;24.10;66.00
3818;DHT22;1924;48.078;11.516;2022-07-06T13:21:46;24.00;69.20
3818;DHT22;1924;48.078;11.516;2022-07-06T13:24:14;24.10;72.40
3818;DHT22;1924;48.078;11.516;2022-07-06T13:26:41;24.20;70.20
3818;DHT22;1924;48.078;11.516;2022-07-06T13:29:08;24.20;65.00
3818;DHT22;1924;48.078;11.516;2022-07-06T13:31:36;24.30;65.80
3818;DHT22;1924;48.078;11.516;2022-07-06T13:34:04;24.40;68.00
3818;DHT22;1924;48.078;11.516;2022-07-06T13:36:31;24.50;65.90
3818;DHT22;1924;48.078;11.516;2022-07-06T13:38:57;24.30;64.60
3818;DHT22;1924;48.078;11.516;2022-07-06T13:41:26;24.40;65.10
3818;DHT22;1924;48.078;11.516;2022-07-06T13:43:52;24.70;66.40
3818;DHT22;1924;48.078;11.516;2022-07-06T13:46:20;24.90;65.90
3818;DHT22;1924;48.078;11.516;2022-07-06T13:48:46;25.00;66.60
3818;DHT22;1924;48.078;11.516;2022-07-06T13:51:13;24.90;63.10
3818;DHT22;1924;48.078;11.516;2022-07-06T13:53:40;24.60;62.20
3818;DHT22;1924;48.078;11.516;2022-07-06T13:56:07;24.70;66.80
3818;DHT22;1924;48.078;11.516;2022-07-06T13:58:35;24.50;62.40
3818;DHT22;1924;48.078;11.516;2022-07-06T14:01:02;24.50;64.80
3818;DHT22;1924;48.078;11.516;2022-07-06T14:03:29;24.50;64.20
3818;DHT22;1924;48.078;11.516;2022-07-06T14:05:57;24.80;66.10
3818;DHT22;1924;48.078;11.516;2022-07-06T14:08:25;24.90;65.60
3818;DHT22;1924;48.078;11.516;2022-07-06T14:10:52;25.00;65.00
3818;DHT22;1924;48.078;11.516;2022-07-06T14:13:19;24.90;61.90
3818;DHT22;1924;48.078;11.516;2022-07-06T14:15:48;24.80;61.30
3818;DHT22;1924;48.078;11.516;2022-07-06T14:18:15;24.60;61.60
3818;DHT22;1924;48.078;11.516;2022-07-06T14:20:43;24.60;64.20
3818;DHT22;1924;48.078;11.516;2022-07-06T14:23:10;24.60;62.80
3818;DHT22;1924;48.078;11.516;2022-07-06T14:25:48;24.60;63.80
3818;DHT22;1924;48.078;11.516;2022-07-06T14:28:16;24.60;62.80
3818;DHT22;1924;48.078;11.516;2022-07-06T14:30:44;24.60;62.20
3818;DHT22;1924;48.078;11.516;2022-07-06T14:33:13;24.60;60.30
3818;DHT22;1924;48.078;11.516;2022-07-06T14:35:43;24.30;60.20
3818;DHT22;1924;48.078;11.516;2022-07-06T14:38:11;24.20;62.10
3818;DHT22;1924;48.078;11.516;2022-07-06T14:40:38;24.40;62.60
3818;DHT22;1924;48.078;11.516;2022-07-06T14:43:05;24.50;63.50
3818;DHT22;1924;48.078;11.516;2022-07-06T14:45:32;24.40;64.60
3818;DHT22;1924;48.078;11.516;2022-07-06T14:47:59;24.30;62.30
3818;DHT22;1924;48.078;11.516;2022-07-06T14:50:27;24.30;64.40
3818;DHT22;1924;48.078;11.516;2022-07-06T14:52:54;24.40;64.30
3818;DHT22;1924;48.078;11.516;2022-07-06T14:55:21;24.40;62.40
3818;DHT22;1924;48.078;11.516;2022-07-06T14:57:48;24.50;62.60
3818;DHT22;1924;48.078;11.516;2022-07-06T15:00:15;24.60;64.20
3818;DHT22;1924;48.078;11.516;2022-07-06T15:02:42;24.60;64.10
3818;DHT22;1924;48.078;11.516;2022-07-06T15:05:10;24.40;60.10
3818;DHT22;1924;48.078;11.516;2022-07-06T15:07:38;24.30;62.60
3818;DHT22;1924;48.078;11.516;2022-07-06T15:10:06;24.30;61.30
3818;DHT22;1924;48.078;11.516;2022-07-06T15:12:34;24.20;63.70
3818;DHT22;1924;48.078;11.516;2022-07-06T15:15:00;24.10;61.70
3818;DHT22;1924;48.078;11.516;2022-07-06T15:17:28;24.10;63.90
3818;DHT22;1924;48.078;11.516;2022-07-06T15:19:57;24.10;63.20
3818;DHT22;1924;48.078;11.516;2022-07-06T15:22:24;24.00;63.20
3818;DHT22;1924;48.078;11.516;2022-07-06T15:24:52;24.10;61.50
3818;DHT22;1924;48.078;11.516;2022-07-06T15:27:19;24.10;60.80
3818;DHT22;1924;48.078;11.516;2022-07-06T15:29:45;24.00;64.00
3818;DHT22;1924;48.078;11.516;2022-07-06T15:32:12;23.80;63.00
3818;DHT22;1924;48.078;11.516;2022-07-06T15:34:39;23.80;63.70
3818;DHT22;1924;48.078;11.516;2022-07-06T15:37:06;23.90;64.10
3818;DHT22;1924;48.078;11.516;2022-07-06T15:39:33;23.90;64.40
3818;DHT22;1924;48.078;11.516;2022-07-06T15:42:01;24.10;63.30
3818;DHT22;1924;48.078;11.516;2022-07-06T15:44:28;24.20;61.80
3818;DHT22;1924;48.078;11.516;2022-07-06T15:46:54;24.10;63.20
3818;DHT22;1924;48.078;11.516;2022-07-06T15:49:24;24.20;63.20